Des Moines, Iowa
Current Conditions -  °F | °C
As of 3:54 PM on Monday 26 Jan 2015 (Local Time) from KDSM Reporting Station
Few Clouds Few Clouds  
Wind Chill: 12°   Ceiling: Unl
Heat Index: 12°   Visibility: 10mi
Dew Point:   Wind: 18mph
Humidity: 52%   Direction: 320°NW
Pressure: 29.85"   Gusts: 24mph
Location:  41.59°N, 93.61°W
Report Text: KDSM 262154Z 32016G21KT 10SM FEW030 FEW250 12/02 A2985 RMK AO2 PK WND 31028/2110 SLP114 T01170022
Loading
Personal Weather Stations






























Interactive Weather Map New forecast layout! Learn more

10-Day Weather Forecast

Advertisements
Track Severe Weather on mobile